Time;durP1;ratioP1;P1;durP2;ratioP2;P2;SDS_P1;SDS_P2;PMS_P1;PMS_P2;Temp;Humidity;BMP_temperature;BMP_pressure;BME280_temperature;BME280_humidity;BME280_pressure;Samples;Min_cycle;Max_cycle;Signal;HPM_P1;HPM_P2
2021/03/05 00:00:03;;;;;;;38.15;18.98;;;3.10;97.10;;;;;;2055920;28;20509;-67
2021/03/05 00:01:13;;;;;;;36.42;17.75;;;3.10;97.20;;;;;;2056696;28;20023;-67
2021/03/05 00:02:14;;;;;;;35.25;18.27;;;3.10;97.40;;;;;;2056849;28;20062;-67
2021/03/05 00:03:15;;;;;;;37.72;18.35;;;3.10;97.40;;;;;;2056946;28;20104;-67
2021/03/05 00:04:15;;;;;;;38.03;18.92;;;3.10;97.30;;;;;;2056744;28;20398;-67
2021/03/05 00:05:16;;;;;;;34.88;18.08;;;3.20;97.20;;;;;;2056742;28;20109;-67
2021/03/05 00:06:17;;;;;;;37.28;18.88;;;3.20;97.20;;;;;;2056443;28;20031;-67
2021/03/05 00:07:18;;;;;;;34.33;17.58;;;3.20;97.10;;;;;;2055755;28;20034;-68
2021/03/05 00:08:18;;;;;;;36.10;18.92;;;3.20;97.10;;;;;;2056853;28;20061;-67
2021/03/05 00:09:19;;;;;;;34.55;18.38;;;3.20;97.00;;;;;;2056568;28;20129;-67
2021/03/05 00:10:27;;;;;;;34.80;18.35;;;3.20;97.00;;;;;;2064254;28;20045;-68
2021/03/05 00:11:28;;;;;;;32.13;17.48;;;3.20;97.20;;;;;;2056367;28;20066;-67
2021/03/05 00:12:28;;;;;;;35.60;18.42;;;3.20;97.20;;;;;;2056270;28;20023;-66
2021/03/05 00:13:29;;;;;;;36.55;18.73;;;3.20;97.30;;;;;;2056481;28;20030;-67
2021/03/05 00:14:30;;;;;;;39.17;19.75;;;3.20;97.30;;;;;;2056681;28;20015;-67
2021/03/05 00:15:33;;;;;;;38.45;18.88;;;3.20;97.30;;;;;;2056142;28;20493;-67
2021/03/05 00:16:34;;;;;;;35.42;18.55;;;3.20;97.50;;;;;;2055874;28;20430;-69
2021/03/05 00:17:35;;;;;;;40.72;20.52;;;3.10;97.50;;;;;;2056106;28;20027;-67
2021/03/05 00:18:35;;;;;;;38.55;19.65;;;3.10;97.40;;;;;;2056004;28;20074;-67
2021/03/05 00:19:36;;;;;;;38.75;19.45;;;3.20;97.50;;;;;;2056309;28;20382;-67
2021/03/05 00:20:41;;;;;;;38.00;19.73;;;3.20;97.40;;;;;;2056546;28;20026;-67
2021/03/05 00:21:41;;;;;;;39.50;19.65;;;3.20;97.20;;;;;;2056591;28;20022;-67
2021/03/05 00:22:42;;;;;;;39.22;20.20;;;3.20;97.00;;;;;;2056809;28;20026;-68
2021/03/05 00:23:43;;;;;;;37.47;20.08;;;3.20;96.90;;;;;;2055856;28;20383;-67
2021/03/05 00:24:43;;;;;;;37.90;19.80;;;3.20;96.80;;;;;;2055771;28;20043;-67
2021/03/05 00:25:44;;;;;;;38.72;20.25;;;3.20;96.80;;;;;;2055525;28;20077;-68
2021/03/05 00:26:45;;;;;;;38.72;19.48;;;3.20;97.00;;;;;;2055765;28;20382;-67
2021/03/05 00:27:45;;;;;;;37.95;19.65;;;3.10;96.90;;;;;;2063674;28;20459;-67
2021/03/05 00:28:46;;;;;;;37.50;19.92;;;3.10;96.90;;;;;;2055500;28;20034;-67
2021/03/05 00:29:46;;;;;;;36.33;19.13;;;3.10;96.80;;;;;;2055191;28;20137;-67
2021/03/05 00:30:47;;;;;;;38.15;19.70;;;3.10;96.80;;;;;;2055493;28;20027;-67
2021/03/05 00:31:48;;;;;;;38.53;20.77;;;3.10;96.90;;;;;;2056110;28;20027;-67
2021/03/05 00:32:48;;;;;;;37.72;20.05;;;3.00;97.00;;;;;;2055525;28;20493;-67
2021/03/05 00:33:49;;;;;;;38.85;20.70;;;3.00;97.10;;;;;;2055476;28;20398;-67
2021/03/05 00:34:49;;;;;;;39.50;20.95;;;3.00;97.20;;;;;;2056190;28;20026;-67
2021/03/05 00:35:50;;;;;;;39.75;20.17;;;3.00;97.20;;;;;;2056051;28;20046;-68
2021/03/05 00:36:51;;;;;;;38.70;19.67;;;3.00;97.20;;;;;;2055727;28;20033;-67
2021/03/05 00:37:52;;;;;;;38.72;19.95;;;3.00;97.40;;;;;;2056137;28;20031;-70
2021/03/05 00:38:52;;;;;;;40.58;21.33;;;3.00;97.60;;;;;;2055420;28;20026;-68
2021/03/05 00:39:53;;;;;;;37.20;19.65;;;2.90;97.60;;;;;;2055183;28;20494;-69
2021/03/05 00:40:53;;;;;;;41.33;21.45;;;2.90;97.70;;;;;;2056151;28;20113;-69
2021/03/05 00:41:54;;;;;;;39.42;20.95;;;2.90;97.60;;;;;;2056086;28;20026;-69
2021/03/05 00:42:55;;;;;;;39.33;20.17;;;2.90;98.00;;;;;;2055595;28;20073;-68
2021/03/05 00:43:55;;;;;;;39.53;20.35;;;2.90;97.80;;;;;;2055487;28;20026;-69
2021/03/05 00:44:56;;;;;;;38.95;20.20;;;2.90;97.90;;;;;;2055539;28;20027;-69
2021/03/05 00:45:57;;;;;;;37.55;20.52;;;2.90;97.90;;;;;;2055497;28;20141;-69
2021/03/05 00:47:00;;;;;;;41.95;21.15;;;2.90;97.90;;;;;;2055455;28;20031;-69
2021/03/05 00:48:01;;;;;;;44.30;21.73;;;2.90;97.90;;;;;;2055803;28;20409;-69
2021/03/05 00:49:02;;;;;;;39.55;20.98;;;2.90;98.00;;;;;;2055738;28;20100;-69
2021/03/05 00:50:06;;;;;;;39.00;20.08;;;2.90;98.00;;;;;;2055922;28;20134;-69
2021/03/05 00:51:07;;;;;;;38.97;20.52;;;2.90;98.00;;;;;;2047997;28;20023;-68
2021/03/05 00:52:08;;;;;;;37.17;19.23;;;2.90;98.00;;;;;;2048411;28;20105;-69
2021/03/05 00:53:09;;;;;;;37.13;20.15;;;2.90;98.10;;;;;;2049798;28;20514;-69
2021/03/05 00:54:10;;;;;;;42.47;21.92;;;3.00;98.10;;;;;;2055603;28;20114;-69
2021/03/05 00:55:11;;;;;;;42.58;22.60;;;2.90;98.00;;;;;;2055620;28;20018;-69
2021/03/05 00:56:14;;;;;;;40.80;21.30;;;2.90;98.00;;;;;;2039892;29;20119;-70
2021/03/05 00:57:15;;;;;;;40.95;21.55;;;2.90;98.00;;;;;;2046952;28;20077;-70
2021/03/05 00:58:15;;;;;;;40.30;21.50;;;2.90;98.00;;;;;;2055423;28;20030;-69
2021/03/05 00:59:16;;;;;;;41.38;21.55;;;2.90;98.10;;;;;;2055215;28;20039;-69
2021/03/05 01:00:19;;;;;;;39.65;20.92;;;2.90;98.10;;;;;;2055540;28;20122;-68
2021/03/05 01:01:20;;;;;;;38.28;20.48;;;2.90;98.20;;;;;;2055468;28;20106;-69
2021/03/05 01:02:21;;;;;;;41.15;21.83;;;2.90;98.30;;;;;;2055523;28;20030;-69
2021/03/05 01:03:22;;;;;;;43.55;22.40;;;2.90;98.20;;;;;;2055364;28;20037;-69
2021/03/05 01:04:22;;;;;;;40.55;21.08;;;2.90;98.30;;;;;;2047440;28;20027;-68
2021/03/05 01:05:26;;;;;;;42.13;21.85;;;2.90;98.30;;;;;;2040017;29;20031;-68
2021/03/05 01:06:27;;;;;;;41.42;21.23;;;2.90;98.30;;;;;;2039726;29;20032;-69
2021/03/05 01:07:34;;;;;;;43.13;21.92;;;2.90;98.30;;;;;;2048329;28;20058;-68
2021/03/05 01:08:35;;;;;;;41.00;21.70;;;3.00;98.40;;;;;;2047497;29;20123;-68
2021/03/05 01:09:38;;;;;;;41.95;22.65;;;2.90;98.40;;;;;;2047376;28;20089;-68
2021/03/05 01:10:40;;;;;;;42.92;22.38;;;3.00;98.40;;;;;;2055562;28;20474;-68
2021/03/05 01:11:41;;;;;;;44.53;21.70;;;3.00;98.30;;;;;;2056219;28;20164;-68
2021/03/05 01:12:41;;;;;;;45.70;22.80;;;3.00;98.40;;;;;;2056109;28;20023;-68
2021/03/05 01:13:42;;;;;;;44.78;22.92;;;3.00;98.30;;;;;;2056259;28;20397;-68
2021/03/05 01:14:42;;;;;;;40.40;22.45;;;3.00;98.10;;;;;;2056093;28;20118;-68
2021/03/05 01:15:43;;;;;;;43.53;22.52;;;3.00;98.10;;;;;;2056263;28;20413;-68
2021/03/05 01:16:44;;;;;;;41.20;21.27;;;3.00;98.10;;;;;;2056131;28;20035;-68
2021/03/05 01:17:44;;;;;;;44.45;23.13;;;3.00;98.20;;;;;;2056362;28;20046;-68
2021/03/05 01:18:45;;;;;;;46.72;23.05;;;3.10;98.20;;;;;;2056189;28;20058;-68
2021/03/05 01:19:45;;;;;;;41.28;21.48;;;3.10;98.20;;;;;;2055642;28;20030;-69
2021/03/05 01:20:46;;;;;;;42.25;22.27;;;3.00;98.20;;;;;;2056066;28;20039;-68
2021/03/05 01:21:47;;;;;;;44.85;23.23;;;3.00;98.20;;;;;;2055894;28;20075;-69
2021/03/05 01:22:47;;;;;;;46.70;23.52;;;3.00;98.20;;;;;;2055996;28;20787;-68
2021/03/05 01:23:48;;;;;;;45.25;23.77;;;3.10;98.10;;;;;;2056017;28;20486;-68
2021/03/05 01:24:48;;;;;;;42.78;22.85;;;3.10;98.00;;;;;;2056031;28;20058;-68
2021/03/05 01:25:49;;;;;;;43.88;23.02;;;3.10;97.90;;;;;;2055886;28;20041;-68
2021/03/05 01:26:50;;;;;;;45.03;23.17;;;3.10;97.80;;;;;;2055328;28;20057;-68
2021/03/05 01:27:51;;;;;;;42.85;22.38;;;3.10;97.90;;;;;;2087167;28;20041;-68
2021/03/05 01:28:51;;;;;;;46.25;23.60;;;3.10;97.80;;;;;;2097888;28;20016;-68
2021/03/05 01:29:52;;;;;;;45.65;23.38;;;3.00;97.90;;;;;;2097491;28;20024;-68
2021/03/05 01:30:53;;;;;;;43.53;23.75;;;3.00;98.10;;;;;;2097694;28;20048;-68
2021/03/05 01:31:53;;;;;;;44.78;22.58;;;3.10;98.10;;;;;;2088882;28;20029;-69
2021/03/05 01:32:54;;;;;;;43.40;22.67;;;3.10;98.00;;;;;;2088985;28;20025;-68
2021/03/05 01:33:54;;;;;;;48.22;24.25;;;3.00;98.10;;;;;;2088872;28;20139;-68
2021/03/05 01:34:55;;;;;;;46.85;23.55;;;3.00;97.90;;;;;;2088869;28;20044;-68
2021/03/05 01:35:56;;;;;;;43.20;22.38;;;3.00;98.00;;;;;;2097712;28;20467;-68
2021/03/05 01:36:58;;;;;;;44.08;23.42;;;3.00;98.10;;;;;;2096819;28;20024;-68
2021/03/05 01:37:58;;;;;;;45.63;23.40;;;3.00;98.20;;;;;;2097698;28;20021;-68
2021/03/05 01:38:59;;;;;;;46.85;24.02;;;3.00;98.30;;;;;;2097768;28;20039;-69
2021/03/05 01:40:00;;;;;;;43.58;23.15;;;3.00;98.40;;;;;;2097353;28;20021;-68
2021/03/05 01:41:00;;;;;;;43.95;23.08;;;3.00;98.40;;;;;;2097631;28;20020;-68
2021/03/05 01:42:01;;;;;;;42.88;22.23;;;3.00;98.30;;;;;;2097639;28;20021;-68
2021/03/05 01:43:15;;;;;;;44.08;23.15;;;3.00;98.20;;;;;;2097177;28;20024;-69
2021/03/05 01:44:15;;;;;;;44.47;23.23;;;3.00;98.20;;;;;;2097212;28;20717;-69
2021/03/05 01:45:20;;;;;;;44.28;23.63;;;3.00;98.20;;;;;;2098303;28;20031;-68
2021/03/05 01:46:22;;;;;;;43.15;22.77;;;3.00;98.20;;;;;;2099453;28;20024;-68
2021/03/05 01:47:23;;;;;;;43.58;23.20;;;3.00;98.20;;;;;;2098901;28;20025;-68
2021/03/05 01:48:24;;;;;;;43.72;22.73;;;3.00;98.10;;;;;;2098339;28;20028;-68
2021/03/05 01:49:24;;;;;;;40.90;21.73;;;3.00;98.10;;;;;;2097134;28;20654;-70
2021/03/05 01:50:28;;;;;;;41.63;21.23;;;3.10;98.20;;;;;;2089039;28;20096;-69
2021/03/05 01:51:32;;;;;;;44.15;22.45;;;3.00;98.20;;;;;;2089671;28;20098;-69
2021/03/05 01:52:33;;;;;;;42.53;21.23;;;3.00;98.30;;;;;;2097701;28;20380;-68
2021/03/05 01:53:33;;;;;;;42.00;21.63;;;3.10;98.40;;;;;;2097810;28;20070;-67
2021/03/05 01:54:34;;;;;;;37.97;20.98;;;3.10;98.30;;;;;;2097736;28;20056;-67
2021/03/05 01:55:35;;;;;;;37.95;20.55;;;3.10;98.10;;;;;;2088934;28;20017;-67
2021/03/05 01:56:48;;;;;;;39.28;21.08;;;3.10;98.10;;;;;;2088277;28;20381;-67
2021/03/05 01:57:48;;;;;;;37.00;19.63;;;3.10;98.20;;;;;;2097687;28;20495;-67
2021/03/05 01:58:49;;;;;;;36.67;19.65;;;3.00;98.20;;;;;;2097647;28;20020;-67
2021/03/05 01:59:50;;;;;;;38.65;19.48;;;3.00;98.40;;;;;;2097284;28;20520;-67
2021/03/05 02:00:59;;;;;;;34.65;18.60;;;3.00;98.40;;;;;;2097571;28;20394;-67
2021/03/05 02:02:05;;;;;;;38.65;20.20;;;3.00;98.60;;;;;;2097700;28;20020;-67
2021/03/05 02:03:07;;;;;;;36.75;19.75;;;3.00;98.70;;;;;;2097722;28;20020;-67
2021/03/05 02:04:13;;;;;;;36.75;19.52;;;3.00;98.70;;;;;;2097524;28;20072;-67
2021/03/05 02:05:14;;;;;;;35.40;18.67;;;3.00;98.70;;;;;;2088775;28;20017;-68
2021/03/05 02:06:15;;;;;;;37.20;19.52;;;3.00;98.70;;;;;;2080666;28;20030;-68
2021/03/05 02:07:16;;;;;;;35.13;18.80;;;3.00;98.70;;;;;;2088330;28;20029;-68
2021/03/05 02:08:17;;;;;;;37.08;18.42;;;3.00;99.00;;;;;;2097564;28;20055;-68
2021/03/05 02:09:17;;;;;;;34.53;18.20;;;3.00;98.70;;;;;;2097293;28;20020;-68
2021/03/05 02:10:18;;;;;;;33.53;18.17;;;3.00;98.70;;;;;;2097451;28;20480;-68
2021/03/05 02:11:21;;;;;;;31.67;17.45;;;3.00;98.60;;;;;;2097516;28;20108;-67
2021/03/05 02:12:22;;;;;;;32.63;16.95;;;3.00;98.60;;;;;;2088573;28;20555;-68
2021/03/05 02:13:23;;;;;;;33.20;17.15;;;3.00;98.50;;;;;;2088742;28;20033;-68
2021/03/05 02:14:24;;;;;;;32.95;17.00;;;3.00;98.40;;;;;;2097568;28;20032;-68
2021/03/05 02:15:26;;;;;;;33.65;18.00;;;3.00;98.40;;;;;;2097602;28;20654;-68
2021/03/05 02:16:53;;;;;;;32.03;17.73;;;3.00;98.40;;;;;;2097208;28;20052;-68
2021/03/05 02:18:06;;;;;;;33.20;17.50;;;3.00;98.80;;;;;;2088550;28;20120;-68
2021/03/05 02:19:19;;;;;;;32.25;17.00;;;3.00;98.60;;;;;;2090181;28;20052;-68
2021/03/05 02:20:23;;;;;;;32.95;17.33;;;3.00;98.60;;;;;;2097510;28;20059;-68
2021/03/05 02:21:38;;;;;;;33.95;18.00;;;3.00;98.60;;;;;;2097568;28;20074;-68
2021/03/05 02:23:06;;;;;;;34.35;17.75;;;2.90;98.50;;;;;;2097533;28;20056;-68
2021/03/05 02:24:29;;;;;;;33.67;17.98;;;2.90;98.70;;;;;;2097423;28;20028;-68
2021/03/05 02:25:38;;;;;;;39.67;19.80;;;2.90;98.80;;;;;;2096444;28;20038;-68
2021/03/05 02:26:54;;;;;;;38.03;19.13;;;2.90;98.70;;;;;;2097034;28;20013;-68
2021/03/05 02:28:25;;;;;;;41.30;20.58;;;2.90;98.80;;;;;;2061388;28;20128;-68
2021/03/05 02:29:55;;;;;;;40.35;19.77;;;2.90;98.90;;;;;;2055036;28;20377;-68
2021/03/05 02:31:11;;;;;;;40.53;19.95;;;2.80;98.90;;;;;;2079737;28;20037;-67
2021/03/05 02:32:18;;;;;;;45.03;21.58;;;2.90;99.00;;;;;;2062903;28;20034;-67
2021/03/05 02:33:58;;;;;;;43.35;21.60;;;2.90;98.90;;;;;;2062244;28;20038;-67
2021/03/05 02:35:00;;;;;;;45.17;21.73;;;2.80;99.00;;;;;;2055455;28;20340;-67
2021/03/05 02:36:03;;;;;;;42.92;21.00;;;2.80;99.10;;;;;;2055480;28;20049;-67
2021/03/05 02:37:11;;;;;;;44.28;21.73;;;2.90;99.20;;;;;;2054956;28;20027;-67
2021/03/05 02:38:14;;;;;;;41.20;21.48;;;2.90;99.10;;;;;;2054879;28;20015;-67
2021/03/05 02:39:18;;;;;;;43.60;22.08;;;3.00;98.90;;;;;;2054535;28;20019;-67
2021/03/05 02:40:29;;;;;;;44.88;21.88;;;3.00;98.90;;;;;;2054781;28;20037;-67
2021/03/05 02:41:31;;;;;;;43.72;21.98;;;3.00;98.90;;;;;;2048259;28;20020;-67
2021/03/05 02:42:45;;;;;;;47.25;23.58;;;3.00;98.80;;;;;;2046843;29;20035;-67
2021/03/05 02:43:45;;;;;;;44.78;23.08;;;3.00;98.80;;;;;;2048810;28;20031;-68
2021/03/05 02:44:55;;;;;;;47.17;22.95;;;3.00;98.80;;;;;;2055383;28;20058;-68
2021/03/05 02:46:02;;;;;;;45.65;22.75;;;2.90;98.90;;;;;;2055535;28;20030;-67
2021/03/05 02:47:05;;;;;;;45.45;23.42;;;3.00;99.00;;;;;;2054875;28;20509;-67
2021/03/05 02:48:13;;;;;;;46.78;22.38;;;3.00;98.80;;;;;;2055372;28;20031;-67
2021/03/05 02:49:19;;;;;;;43.47;22.02;;;3.00;99.20;;;;;;2055627;28;20034;-68
2021/03/05 02:50:23;;;;;;;45.40;23.02;;;3.00;98.90;;;;;;2056309;28;20046;-67
2021/03/05 02:51:26;;;;;;;46.53;23.73;;;3.00;98.90;;;;;;2056990;28;20027;-67
2021/03/05 02:52:29;;;;;;;45.35;23.00;;;3.00;99.10;;;;;;2056192;28;20095;-68
2021/03/05 02:53:31;;;;;;;46.83;23.23;;;2.90;99.00;;;;;;2056293;28;20406;-66
2021/03/05 02:54:36;;;;;;;45.58;22.92;;;3.00;99.10;;;;;;2056749;28;20090;-68
2021/03/05 02:55:37;;;;;;;45.83;22.17;;;3.00;99.10;;;;;;2056816;28;20019;-67
2021/03/05 02:56:39;;;;;;;47.55;22.95;;;3.10;98.90;;;;;;2056347;28;20045;-68
2021/03/05 02:57:45;;;;;;;45.10;23.05;;;3.10;98.70;;;;;;2056354;28;20029;-67
2021/03/05 02:58:48;;;;;;;42.60;22.23;;;3.10;98.60;;;;;;2056120;28;20129;-68
2021/03/05 02:59:50;;;;;;;43.10;22.40;;;3.10;98.50;;;;;;2056487;28;20049;-69
2021/03/05 03:00:53;;;;;;;45.90;22.50;;;3.10;98.60;;;;;;2056726;28;20117;-68
2021/03/05 03:01:54;;;;;;;47.15;23.42;;;3.10;98.70;;;;;;2056866;28;20031;-68
2021/03/05 03:02:56;;;;;;;44.47;22.83;;;3.10;98.70;;;;;;2056706;28;20023;-68
2021/03/05 03:03:58;;;;;;;43.75;22.42;;;3.10;98.70;;;;;;2056773;28;20117;-68
2021/03/05 03:05:00;;;;;;;45.92;23.02;;;3.20;98.80;;;;;;2056715;28;20031;-69
2021/03/05 03:06:00;;;;;;;46.13;24.00;;;3.20;98.70;;;;;;2056134;28;20085;-68
2021/03/05 03:07:02;;;;;;;44.00;22.48;;;3.20;98.60;;;;;;2047524;28;20035;-69
2021/03/05 03:08:04;;;;;;;42.67;21.40;;;3.20;98.60;;;;;;2056178;28;20041;-68
2021/03/05 03:09:06;;;;;;;42.20;22.35;;;3.20;98.50;;;;;;2047621;28;20133;-69
2021/03/05 03:10:10;;;;;;;44.67;22.48;;;3.20;98.60;;;;;;2048257;28;20023;-69
2021/03/05 03:11:11;;;;;;;45.70;22.67;;;3.20;98.50;;;;;;2056713;28;20030;-68
2021/03/05 03:12:14;;;;;;;44.67;22.55;;;3.20;98.50;;;;;;2056724;28;20454;-68
2021/03/05 03:13:16;;;;;;;48.22;23.92;;;3.20;98.60;;;;;;2056077;28;20031;-68
2021/03/05 03:14:17;;;;;;;46.92;23.48;;;3.10;98.50;;;;;;2056113;28;20027;-68
2021/03/05 03:15:18;;;;;;;49.15;23.92;;;3.10;98.50;;;;;;2056080;28;20482;-68
2021/03/05 03:16:21;;;;;;;46.20;22.60;;;3.10;98.60;;;;;;2056739;28;20030;-68
2021/03/05 03:17:23;;;;;;;44.22;22.52;;;3.10;98.70;;;;;;2056222;28;20027;-67
2021/03/05 03:18:24;;;;;;;45.47;23.17;;;3.10;98.70;;;;;;2056200;28;20034;-69
2021/03/05 03:19:25;;;;;;;44.13;22.27;;;3.10;98.80;;;;;;2055797;28;20054;-67
2021/03/05 03:20:26;;;;;;;45.90;22.92;;;3.10;98.90;;;;;;2056564;28;20505;-68
2021/03/05 03:21:27;;;;;;;45.25;22.90;;;3.10;98.80;;;;;;2056709;28;20102;-68
2021/03/05 03:22:28;;;;;;;43.45;21.95;;;3.10;98.70;;;;;;2056584;28;20397;-67
2021/03/05 03:23:29;;;;;;;45.55;23.08;;;3.10;98.80;;;;;;2056706;28;20034;-68
2021/03/05 03:24:33;;;;;;;44.33;22.40;;;3.20;98.60;;;;;;2056635;28;20494;-69
2021/03/05 03:25:34;;;;;;;46.35;22.38;;;3.20;98.40;;;;;;2056870;28;20461;-68
2021/03/05 03:26:38;;;;;;;44.53;22.00;;;3.10;98.40;;;;;;2055478;28;20034;-68
2021/03/05 03:27:39;;;;;;;43.53;22.85;;;3.10;98.30;;;;;;2055965;28;20038;-67
2021/03/05 03:28:40;;;;;;;43.42;22.73;;;3.10;98.40;;;;;;2056637;28;20481;-68
2021/03/05 03:29:41;;;;;;;44.13;22.45;;;3.10;98.40;;;;;;2056436;28;20102;-68
2021/03/05 03:30:42;;;;;;;42.10;22.02;;;3.10;98.40;;;;;;2056525;28;20529;-67
2021/03/05 03:31:45;;;;;;;43.10;22.00;;;3.10;98.50;;;;;;2056453;28;20038;-68
2021/03/05 03:32:46;;;;;;;40.78;21.40;;;3.10;98.50;;;;;;2056507;28;20042;-69
2021/03/05 03:33:47;;;;;;;43.85;21.73;;;3.10;98.50;;;;;;2056582;28;20072;-68
2021/03/05 03:34:49;;;;;;;39.22;20.38;;;3.10;98.50;;;;;;2056548;28;20027;-68
2021/03/05 03:35:50;;;;;;;42.08;22.00;;;3.10;98.40;;;;;;2056504;28;20034;-68
2021/03/05 03:36:51;;;;;;;41.72;21.23;;;3.10;98.20;;;;;;2056040;28;20027;-67
2021/03/05 03:37:54;;;;;;;45.85;22.15;;;3.10;98.30;;;;;;2055961;28;20054;-69
2021/03/05 03:38:56;;;;;;;42.33;21.05;;;3.10;98.40;;;;;;2048205;28;20552;-68
2021/03/05 03:39:56;;;;;;;39.97;20.48;;;3.10;98.50;;;;;;2055622;28;20068;-69
2021/03/05 03:40:58;;;;;;;41.67;20.95;;;3.10;98.50;;;;;;2055731;28;20027;-68
2021/03/05 03:42:00;;;;;;;41.55;20.88;;;3.10;98.40;;;;;;2055995;28;20045;-69
2021/03/05 03:43:01;;;;;;;37.85;20.02;;;3.10;98.30;;;;;;2056579;28;20053;-68
2021/03/05 03:44:07;;;;;;;38.25;19.42;;;3.10;98.30;;;;;;2056619;28;20508;-69
2021/03/05 03:45:10;;;;;;;36.33;19.33;;;3.10;98.30;;;;;;2056019;28;20031;-68
2021/03/05 03:46:11;;;;;;;34.95;19.02;;;3.20;98.20;;;;;;2056098;28;20053;-68
2021/03/05 03:47:12;;;;;;;34.42;18.02;;;3.20;97.90;;;;;;2056360;28;20083;-69
2021/03/05 03:48:13;;;;;;;33.55;17.85;;;3.20;97.80;;;;;;2056805;28;20031;-68
2021/03/05 03:49:26;;;;;;;35.42;18.75;;;3.30;97.50;;;;;;2055639;28;20034;-68
2021/03/05 03:50:28;;;;;;;32.30;16.85;;;3.30;97.40;;;;;;2055945;28;20538;-68
2021/03/05 03:51:33;;;;;;;33.60;18.15;;;3.30;97.40;;;;;;2056436;28;20039;-68
2021/03/05 03:52:40;;;;;;;34.47;18.42;;;3.30;97.20;;;;;;2056441;28;20126;-67
2021/03/05 03:53:44;;;;;;;34.45;17.55;;;3.30;97.10;;;;;;2056565;28;20026;-67
2021/03/05 03:54:45;;;;;;;30.30;17.17;;;3.30;97.30;;;;;;2055878;28;20394;-69
2021/03/05 03:55:51;;;;;;;31.17;17.45;;;3.30;97.30;;;;;;2055865;28;20031;-69
2021/03/05 03:56:53;;;;;;;32.72;17.50;;;3.20;97.30;;;;;;2056017;28;20027;-68
2021/03/05 03:57:55;;;;;;;30.85;17.08;;;3.30;97.30;;;;;;2056586;28;20039;-67
2021/03/05 03:58:57;;;;;;;30.60;17.02;;;3.30;97.20;;;;;;2056528;28;20023;-68
2021/03/05 03:59:58;;;;;;;31.73;17.10;;;3.30;97.00;;;;;;2055747;28;20670;-67
2021/03/05 04:01:02;;;;;;;30.85;17.17;;;3.30;96.90;;;;;;2056403;28;20038;-68
2021/03/05 04:02:04;;;;;;;31.25;17.63;;;3.20;96.90;;;;;;2056455;28;20026;-68
2021/03/05 04:03:05;;;;;;;29.98;17.30;;;3.30;96.80;;;;;;2056507;28;20125;-68
2021/03/05 04:04:08;;;;;;;34.25;18.38;;;3.30;96.80;;;;;;2056626;28;20137;-68
2021/03/05 04:05:16;;;;;;;33.17;18.73;;;3.30;96.80;;;;;;2056464;28;20482;-68
2021/03/05 04:06:25;;;;;;;32.20;17.77;;;3.40;96.60;;;;;;2056513;28;20144;-68
2021/03/05 04:07:26;;;;;;;33.80;17.98;;;3.40;96.60;;;;;;2056202;28;20069;-68
2021/03/05 04:08:27;;;;;;;33.90;18.15;;;3.40;96.50;;;;;;2056502;28;20066;-68
2021/03/05 04:09:30;;;;;;;32.78;18.40;;;3.30;96.50;;;;;;2056084;28;20038;-68
2021/03/05 04:10:30;;;;;;;31.80;17.80;;;3.30;96.70;;;;;;2056383;28;20031;-67
2021/03/05 04:11:33;;;;;;;34.25;19.00;;;3.40;96.70;;;;;;2056435;28;20038;-68
2021/03/05 04:12:34;;;;;;;33.40;18.52;;;3.40;96.50;;;;;;2056345;28;20054;-68
2021/03/05 04:13:38;;;;;;;34.50;19.23;;;3.40;96.50;;;;;;2056465;28;20050;-67
2021/03/05 04:14:39;;;;;;;35.20;19.27;;;3.30;96.60;;;;;;2056409;28;20027;-67
2021/03/05 04:15:40;;;;;;;35.60;18.77;;;3.30;96.50;;;;;;2056505;28;20026;-67
2021/03/05 04:16:41;;;;;;;33.65;18.70;;;3.30;96.50;;;;;;2055871;28;20482;-68
2021/03/05 04:17:42;;;;;;;35.88;19.13;;;3.30;96.70;;;;;;2056511;28;20030;-68
2021/03/05 04:18:42;;;;;;;34.80;19.10;;;3.20;97.00;;;;;;2056485;28;20026;-67
2021/03/05 04:19:44;;;;;;;33.80;19.10;;;3.20;97.10;;;;;;2055475;28;20390;-67
2021/03/05 04:20:46;;;;;;;34.03;19.35;;;3.30;97.20;;;;;;2088841;28;20124;-67
2021/03/05 04:21:47;;;;;;;35.70;19.33;;;3.30;97.00;;;;;;2055809;28;20035;-66
2021/03/05 04:22:49;;;;;;;33.53;18.70;;;3.30;97.00;;;;;;2056477;28;20031;-67
2021/03/05 04:23:49;;;;;;;35.78;19.13;;;3.20;97.20;;;;;;2056411;28;20053;-66
2021/03/05 04:24:50;;;;;;;34.38;18.98;;;3.20;97.40;;;;;;2056423;28;20378;-67
2021/03/05 04:25:51;;;;;;;37.63;19.55;;;3.20;97.50;;;;;;2056490;28;20054;-67
2021/03/05 04:26:51;;;;;;;38.88;20.08;;;3.20;97.60;;;;;;2055996;28;20031;-66
2021/03/05 04:27:52;;;;;;;35.10;19.25;;;3.10;97.70;;;;;;2055642;28;20543;-66
2021/03/05 04:28:53;;;;;;;37.05;19.50;;;3.10;97.90;;;;;;2055782;28;20058;-67
2021/03/05 04:29:53;;;;;;;38.53;20.58;;;3.10;98.10;;;;;;2055862;28;20038;-66
2021/03/05 04:30:54;;;;;;;38.95;19.95;;;3.10;98.20;;;;;;2055848;28;20371;-67
2021/03/05 04:31:54;;;;;;;39.42;20.83;;;3.10;98.40;;;;;;2056519;28;20095;-67
2021/03/05 04:32:55;;;;;;;37.22;19.58;;;3.00;98.50;;;;;;2056750;28;20034;-67
2021/03/05 04:33:55;;;;;;;32.15;16.65;;;3.00;98.50;;;;;;2060409;28;20035;-66
2021/03/05 04:34:56;;;;;;;33.25;18.38;;;3.00;98.50;;;;;;2064316;28;20022;-67
2021/03/05 04:35:57;;;;;;;31.58;16.48;;;3.00;98.60;;;;;;2064459;28;20089;-67
2021/03/05 04:36:57;;;;;;;29.45;15.35;;;2.90;98.40;;;;;;2097169;28;20040;-66
2021/03/05 04:37:58;;;;;;;25.45;13.90;;;2.90;98.20;;;;;;2056213;28;20057;-66
2021/03/05 04:38:58;;;;;;;24.88;14.07;;;2.80;98.30;;;;;;2063240;28;20482;-67
2021/03/05 04:39:59;;;;;;;20.77;11.82;;;2.80;98.30;;;;;;2064311;28;20027;-66
2021/03/05 04:41:00;;;;;;;21.83;12.05;;;2.80;98.00;;;;;;2057712;28;20027;-66
2021/03/05 04:42:00;;;;;;;18.83;11.05;;;2.80;98.00;;;;;;2055821;28;20433;-67
2021/03/05 04:43:01;;;;;;;14.70;8.32;;;2.80;97.90;;;;;;2055633;28;20078;-67
2021/03/05 04:44:02;;;;;;;11.73;6.78;;;2.80;97.40;;;;;;2056494;28;20034;-67
2021/03/05 04:45:04;;;;;;;11.63;6.22;;;2.80;96.80;;;;;;2056279;28;20482;-67
2021/03/05 04:46:04;;;;;;;12.00;5.70;;;2.70;96.60;;;;;;2056244;28;20034;-67
2021/03/05 04:47:05;;;;;;;10.65;5.53;;;2.70;96.20;;;;;;2055551;28;20109;-66
2021/03/05 04:48:06;;;;;;;8.60;5.35;;;2.70;96.00;;;;;;2056306;28;20042;-66
2021/03/05 04:49:07;;;;;;;11.48;5.57;;;2.60;95.80;;;;;;2055895;28;20068;-67
2021/03/05 04:50:08;;;;;;;9.80;5.88;;;2.50;96.00;;;;;;2056169;28;20547;-68
2021/03/05 04:51:08;;;;;;;9.98;5.82;;;2.50;96.00;;;;;;2056361;28;20045;-67
2021/03/05 04:52:09;;;;;;;8.70;5.57;;;2.50;95.80;;;;;;2056568;28;20181;-67
2021/03/05 04:53:09;;;;;;;11.52;6.53;;;2.50;95.80;;;;;;2056210;28;20084;-68
2021/03/05 04:54:10;;;;;;;11.73;6.85;;;2.40;95.90;;;;;;2056372;28;20437;-68
2021/03/05 04:55:11;;;;;;;12.10;6.03;;;2.40;96.00;;;;;;2056353;28;20031;-67
2021/03/05 04:56:12;;;;;;;10.00;6.60;;;2.40;96.10;;;;;;2056275;28;20080;-68
2021/03/05 04:57:12;;;;;;;9.55;6.40;;;2.40;95.90;;;;;;2055839;28;20080;-68
2021/03/05 04:58:13;;;;;;;11.00;6.55;;;2.50;95.90;;;;;;2056308;28;20030;-67
2021/03/05 04:59:13;;;;;;;10.75;6.60;;;2.40;95.70;;;;;;2055801;28;20497;-68
2021/03/05 05:00:14;;;;;;;11.18;6.57;;;2.40;95.70;;;;;;2056226;28;20138;-67
2021/03/05 05:01:15;;;;;;;10.25;6.43;;;2.40;95.70;;;;;;2056040;28;20144;-67
2021/03/05 05:02:16;;;;;;;9.93;6.95;;;2.40;95.40;;;;;;2056227;28;20118;-68
2021/03/05 05:03:16;;;;;;;10.52;6.70;;;2.40;95.30;;;;;;2056070;28;20034;-67
2021/03/05 05:04:17;;;;;;;11.25;6.40;;;2.40;95.30;;;;;;2056179;28;20047;-67
2021/03/05 05:05:18;;;;;;;11.77;6.45;;;2.40;95.40;;;;;;2056140;28;20058;-68
2021/03/05 05:06:18;;;;;;;11.35;6.65;;;2.40;95.50;;;;;;2055565;28;20035;-68
2021/03/05 05:07:19;;;;;;;11.77;6.60;;;2.40;95.60;;;;;;2054993;28;20114;-67
2021/03/05 05:08:19;;;;;;;10.25;6.65;;;2.30;95.70;;;;;;2055518;28;20072;-68
2021/03/05 05:09:20;;;;;;;13.32;6.90;;;2.40;95.90;;;;;;2055125;28;20066;-68
2021/03/05 05:10:22;;;;;;;10.25;6.60;;;2.40;96.00;;;;;;2055540;28;20114;-67
2021/03/05 05:11:22;;;;;;;11.02;6.25;;;2.40;95.90;;;;;;2055201;28;20054;-67
2021/03/05 05:12:23;;;;;;;12.15;6.90;;;2.40;95.90;;;;;;2056050;28;20144;-67
2021/03/05 05:13:23;;;;;;;9.25;6.55;;;2.30;96.00;;;;;;2063549;28;20214;-67
2021/03/05 05:14:24;;;;;;;11.20;6.82;;;2.30;96.10;;;;;;2063422;28;20026;-67
2021/03/05 05:15:25;;;;;;;10.02;6.35;;;2.30;96.00;;;;;;2056041;28;20386;-67
2021/03/05 05:16:26;;;;;;;10.77;6.57;;;2.30;95.80;;;;;;2056150;28;20076;-67
2021/03/05 05:17:27;;;;;;;11.80;6.80;;;2.30;95.40;;;;;;2056227;28;20046;-67
2021/03/05 05:18:28;;;;;;;10.57;6.22;;;2.40;95.30;;;;;;2056040;28;20057;-67
2021/03/05 05:19:29;;;;;;;10.65;6.32;;;2.30;95.10;;;;;;2054979;28;20129;-67
2021/03/05 05:20:30;;;;;;;10.32;6.28;;;2.30;95.00;;;;;;2055312;28;20031;-68
2021/03/05 05:21:30;;;;;;;8.32;5.88;;;2.40;94.60;;;;;;2056049;28;20027;-67